sensor_id;sensor_type;location;lat;lon;timestamp;P1;durP1;ratioP1;P2;durP2;ratioP2
9280;SDS011;4679;47.966;7.958;2024-01-30T07:14:57;1.20;;;1.10;;
9280;SDS011;4679;47.966;7.958;2024-01-30T07:16:59;3.60;;;1.10;;
9280;SDS011;4679;47.966;7.958;2024-01-30T07:19:01;1.70;;;1.60;;
9280;SDS011;4679;47.966;7.958;2024-01-30T07:21:03;2.47;;;1.30;;
9280;SDS011;4679;47.966;7.958;2024-01-30T07:23:05;2.00;;;1.47;;
9280;SDS011;4679;47.966;7.958;2024-01-30T07:25:06;3.90;;;1.60;;
9280;SDS011;4679;47.966;7.958;2024-01-30T07:27:08;2.63;;;1.40;;
9280;SDS011;4679;47.966;7.958;2024-01-30T07:29:10;2.13;;;1.57;;
9280;SDS011;4679;47.966;7.958;2024-01-30T07:31:12;4.53;;;1.50;;
9280;SDS011;4679;47.966;7.958;2024-01-30T07:33:14;2.97;;;1.70;;
9280;SDS011;4679;47.966;7.958;2024-01-30T07:35:16;1.70;;;1.60;;
9280;SDS011;4679;47.966;7.958;2024-01-30T07:37:17;2.97;;;1.40;;
9280;SDS011;4679;47.966;7.958;2024-01-30T07:39:18;2.33;;;1.20;;
9280;SDS011;4679;47.966;7.958;2024-01-30T07:41:20;1.37;;;1.10;;
9280;SDS011;4679;47.966;7.958;2024-01-30T07:43:21;0.93;;;0.90;;
9280;SDS011;4679;47.966;7.958;2024-01-30T07:45:23;1.10;;;1.00;;
9280;SDS011;4679;47.966;7.958;2024-01-30T07:47:26;1.77;;;1.20;;
9280;SDS011;4679;47.966;7.958;2024-01-30T07:49:28;3.23;;;1.70;;
9280;SDS011;4679;47.966;7.958;2024-01-30T07:51:29;1.57;;;1.47;;
9280;SDS011;4679;47.966;7.958;2024-01-30T07:53:33;4.30;;;1.50;;
9280;SDS011;4679;47.966;7.958;2024-01-30T07:55:34;1.80;;;1.50;;
9280;SDS011;4679;47.966;7.958;2024-01-30T07:57:38;1.67;;;1.53;;
9280;SDS011;4679;47.966;7.958;2024-01-30T07:59:41;1.83;;;1.30;;
9280;SDS011;4679;47.966;7.958;2024-01-30T08:01:44;3.07;;;1.47;;
9280;SDS011;4679;47.966;7.958;2024-01-30T08:03:46;4.37;;;2.13;;
9280;SDS011;4679;47.966;7.958;2024-01-30T08:05:48;2.93;;;1.33;;
9280;SDS011;4679;47.966;7.958;2024-01-30T08:07:50;4.07;;;1.40;;
9280;SDS011;4679;47.966;7.958;2024-01-30T08:09:51;1.90;;;1.27;;
9280;SDS011;4679;47.966;7.958;2024-01-30T08:11:53;1.70;;;1.60;;
9280;SDS011;4679;47.966;7.958;2024-01-30T08:13:54;2.90;;;1.30;;
9280;SDS011;4679;47.966;7.958;2024-01-30T08:15:56;7.57;;;4.47;;
9280;SDS011;4679;47.966;7.958;2024-01-30T08:17:58;3.97;;;1.73;;
9280;SDS011;4679;47.966;7.958;2024-01-30T08:20:00;2.10;;;1.40;;
9280;SDS011;4679;47.966;7.958;2024-01-30T08:22:01;3.60;;;1.80;;
9280;SDS011;4679;47.966;7.958;2024-01-30T08:24:03;2.23;;;1.70;;
9280;SDS011;4679;47.966;7.958;2024-01-30T08:26:05;2.77;;;1.83;;
9280;SDS011;4679;47.966;7.958;2024-01-30T08:28:06;1.90;;;1.70;;
9280;SDS011;4679;47.966;7.958;2024-01-30T08:30:08;3.70;;;2.00;;
9280;SDS011;4679;47.966;7.958;2024-01-30T08:32:10;1.30;;;1.20;;
9280;SDS011;4679;47.966;7.958;2024-01-30T08:34:11;1.70;;;1.40;;
9280;SDS011;4679;47.966;7.958;2024-01-30T08:36:15;2.23;;;1.57;;
9280;SDS011;4679;47.966;7.958;2024-01-30T08:38:16;3.03;;;1.20;;
9280;SDS011;4679;47.966;7.958;2024-01-30T08:40:18;1.70;;;1.60;;
9280;SDS011;4679;47.966;7.958;2024-01-30T08:42:20;1.67;;;1.57;;
9280;SDS011;4679;47.966;7.958;2024-01-30T08:44:22;1.77;;;1.10;;
9280;SDS011;4679;47.966;7.958;2024-01-30T08:46:24;2.83;;;1.53;;
9280;SDS011;4679;47.966;7.958;2024-01-30T08:48:25;2.00;;;1.23;;
9280;SDS011;4679;47.966;7.958;2024-01-30T08:50:26;1.63;;;1.40;;
9280;SDS011;4679;47.966;7.958;2024-01-30T08:52:29;1.40;;;1.30;;
9280;SDS011;4679;47.966;7.958;2024-01-30T08:54:31;1.03;;;1.00;;
9280;SDS011;4679;47.966;7.958;2024-01-30T08:56:34;1.30;;;1.20;;
9280;SDS011;4679;47.966;7.958;2024-01-30T08:58:36;1.47;;;1.30;;
9280;SDS011;4679;47.966;7.958;2024-01-30T09:00:37;1.40;;;1.30;;
9280;SDS011;4679;47.966;7.958;2024-01-30T09:02:39;1.30;;;1.17;;
9280;SDS011;4679;47.966;7.958;2024-01-30T09:04:41;1.57;;;1.40;;
9280;SDS011;4679;47.966;7.958;2024-01-30T09:06:41;2.30;;;2.00;;
9280;SDS011;4679;47.966;7.958;2024-01-30T09:08:44;3.37;;;1.90;;
9280;SDS011;4679;47.966;7.958;2024-01-30T09:10:46;3.60;;;2.00;;
9280;SDS011;4679;47.966;7.958;2024-01-30T09:12:48;3.70;;;3.10;;
9280;SDS011;4679;47.966;7.958;2024-01-30T09:14:49;3.23;;;2.93;;
9280;SDS011;4679;47.966;7.958;2024-01-30T09:16:51;2.47;;;2.20;;
9280;SDS011;4679;47.966;7.958;2024-01-30T09:18:52;3.70;;;2.20;;
9280;SDS011;4679;47.966;7.958;2024-01-30T09:20:53;5.53;;;3.47;;
9280;SDS011;4679;47.966;7.958;2024-01-30T09:22:54;5.03;;;2.97;;
9280;SDS011;4679;47.966;7.958;2024-01-30T09:24:57;3.97;;;1.87;;
9280;SDS011;4679;47.966;7.958;2024-01-30T09:26:59;2.50;;;2.17;;
9280;SDS011;4679;47.966;7.958;2024-01-30T09:29:00;2.17;;;1.87;;
9280;SDS011;4679;47.966;7.958;2024-01-30T09:31:02;3.23;;;2.20;;
9280;SDS011;4679;47.966;7.958;2024-01-30T09:33:04;2.90;;;2.00;;
9280;SDS011;4679;47.966;7.958;2024-01-30T09:35:06;2.43;;;2.03;;
9280;SDS011;4679;47.966;7.958;2024-01-30T09:37:07;2.40;;;2.03;;
9280;SDS011;4679;47.966;7.958;2024-01-30T09:39:09;2.77;;;2.30;;
9280;SDS011;4679;47.966;7.958;2024-01-30T09:41:12;2.90;;;2.23;;
9280;SDS011;4679;47.966;7.958;2024-01-30T09:43:14;2.27;;;2.07;;
9280;SDS011;4679;47.966;7.958;2024-01-30T09:45:23;2.77;;;1.73;;
9280;SDS011;4679;47.966;7.958;2024-01-30T09:47:25;2.13;;;1.70;;
9280;SDS011;4679;47.966;7.958;2024-01-30T09:49:27;2.60;;;1.90;;
9280;SDS011;4679;47.966;7.958;2024-01-30T09:51:28;1.93;;;1.80;;
9280;SDS011;4679;47.966;7.958;2024-01-30T09:53:31;5.80;;;3.13;;
9280;SDS011;4679;47.966;7.958;2024-01-30T09:55:33;3.43;;;2.00;;
9280;SDS011;4679;47.966;7.958;2024-01-30T09:57:37;4.13;;;2.27;;
9280;SDS011;4679;47.966;7.958;2024-01-30T09:59:41;1.57;;;1.37;;
9280;SDS011;4679;47.966;7.958;2024-01-30T10:01:43;1.97;;;1.43;;
9280;SDS011;4679;47.966;7.958;2024-01-30T10:03:45;1.67;;;1.30;;
9280;SDS011;4679;47.966;7.958;2024-01-30T10:05:49;1.57;;;1.20;;
9280;SDS011;4679;47.966;7.958;2024-01-30T10:07:54;2.00;;;1.40;;
9280;SDS011;4679;47.966;7.958;2024-01-30T10:09:57;2.77;;;1.50;;
9280;SDS011;4679;47.966;7.958;2024-01-30T10:11:59;1.83;;;1.50;;
9280;SDS011;4679;47.966;7.958;2024-01-30T10:14:02;2.83;;;1.30;;
9280;SDS011;4679;47.966;7.958;2024-01-30T10:16:04;1.60;;;1.50;;
9280;SDS011;4679;47.966;7.958;2024-01-30T10:18:07;1.70;;;1.47;;
9280;SDS011;4679;47.966;7.958;2024-01-30T10:20:10;1.63;;;1.37;;
9280;SDS011;4679;47.966;7.958;2024-01-30T10:22:12;1.53;;;1.30;;
9280;SDS011;4679;47.966;7.958;2024-01-30T10:24:14;2.13;;;1.70;;
9280;SDS011;4679;47.966;7.958;2024-01-30T10:26:17;1.63;;;1.27;;
9280;SDS011;4679;47.966;7.958;2024-01-30T10:28:18;1.83;;;1.60;;
9280;SDS011;4679;47.966;7.958;2024-01-30T10:30:21;2.60;;;1.70;;
9280;SDS011;4679;47.966;7.958;2024-01-30T10:32:22;2.83;;;1.70;;
9280;SDS011;4679;47.966;7.958;2024-01-30T10:34:24;1.80;;;1.70;;
9280;SDS011;4679;47.966;7.958;2024-01-30T10:36:28;1.63;;;1.53;;
9280;SDS011;4679;47.966;7.958;2024-01-30T10:38:30;2.40;;;1.50;;
9280;SDS011;4679;47.966;7.958;2024-01-30T10:40:33;2.57;;;1.50;;
9280;SDS011;4679;47.966;7.958;2024-01-30T10:42:36;4.10;;;1.60;;
9280;SDS011;4679;47.966;7.958;2024-01-30T10:44:42;2.13;;;1.73;;
9280;SDS011;4679;47.966;7.958;2024-01-30T10:46:50;2.10;;;1.90;;
9280;SDS011;4679;47.966;7.958;2024-01-30T10:48:58;5.73;;;2.00;;
9280;SDS011;4679;47.966;7.958;2024-01-30T10:51:01;3.83;;;2.37;;
9280;SDS011;4679;47.966;7.958;2024-01-30T10:53:05;2.27;;;2.13;;
9280;SDS011;4679;47.966;7.958;2024-01-30T10:55:08;2.70;;;2.20;;
9280;SDS011;4679;47.966;7.958;2024-01-30T10:57:10;2.40;;;2.13;;
9280;SDS011;4679;47.966;7.958;2024-01-30T10:59:12;1.93;;;1.70;;
9280;SDS011;4679;47.966;7.958;2024-01-30T11:01:14;1.87;;;1.70;;
9280;SDS011;4679;47.966;7.958;2024-01-30T11:03:18;2.10;;;1.47;;
9280;SDS011;4679;47.966;7.958;2024-01-30T11:05:24;5.33;;;1.70;;
9280;SDS011;4679;47.966;7.958;2024-01-30T11:07:27;2.27;;;1.60;;
9280;SDS011;4679;47.966;7.958;2024-01-30T11:09:30;2.43;;;2.23;;
9280;SDS011;4679;47.966;7.958;2024-01-30T11:11:31;2.03;;;1.70;;
9280;SDS011;4679;47.966;7.958;2024-01-30T11:13:33;3.70;;;1.70;;
9280;SDS011;4679;47.966;7.958;2024-01-30T11:15:37;3.27;;;1.90;;
9280;SDS011;4679;47.966;7.958;2024-01-30T11:17:39;3.40;;;1.53;;
9280;SDS011;4679;47.966;7.958;2024-01-30T11:19:46;2.43;;;1.70;;
9280;SDS011;4679;47.966;7.958;2024-01-30T11:21:48;2.07;;;1.60;;
9280;SDS011;4679;47.966;7.958;2024-01-30T11:23:53;2.23;;;1.53;;
9280;SDS011;4679;47.966;7.958;2024-01-30T11:25:56;1.80;;;1.70;;
9280;SDS011;4679;47.966;7.958;2024-01-30T11:27:58;3.87;;;1.40;;
9280;SDS011;4679;47.966;7.958;2024-01-30T11:30:01;1.63;;;1.50;;
9280;SDS011;4679;47.966;7.958;2024-01-30T11:32:03;2.00;;;1.37;;
9280;SDS011;4679;47.966;7.958;2024-01-30T11:34:05;3.03;;;1.37;;
9280;SDS011;4679;47.966;7.958;2024-01-30T11:36:07;1.33;;;1.20;;
9280;SDS011;4679;47.966;7.958;2024-01-30T11:38:10;1.30;;;1.20;;
9280;SDS011;4679;47.966;7.958;2024-01-30T11:40:12;5.13;;;1.30;;
9280;SDS011;4679;47.966;7.958;2024-01-30T11:42:13;1.30;;;1.20;;
9280;SDS011;4679;47.966;7.958;2024-01-30T11:44:16;4.83;;;1.73;;
9280;SDS011;4679;47.966;7.958;2024-01-30T11:46:17;1.23;;;1.13;;
9280;SDS011;4679;47.966;7.958;2024-01-30T11:48:19;1.33;;;1.23;;
9280;SDS011;4679;47.966;7.958;2024-01-30T11:50:20;1.20;;;1.07;;
9280;SDS011;4679;47.966;7.958;2024-01-30T11:52:23;1.80;;;1.27;;
9280;SDS011;4679;47.966;7.958;2024-01-30T11:54:24;2.37;;;1.50;;
9280;SDS011;4679;47.966;7.958;2024-01-30T11:56:26;1.70;;;1.60;;
9280;SDS011;4679;47.966;7.958;2024-01-30T11:58:28;1.20;;;1.10;;
9280;SDS011;4679;47.966;7.958;2024-01-30T12:00:29;2.70;;;1.27;;
9280;SDS011;4679;47.966;7.958;2024-01-30T12:02:31;4.10;;;2.03;;
9280;SDS011;4679;47.966;7.958;2024-01-30T12:04:32;2.00;;;1.10;;
9280;SDS011;4679;47.966;7.958;2024-01-30T12:06:34;1.03;;;1.03;;
9280;SDS011;4679;47.966;7.958;2024-01-30T12:08:37;1.50;;;1.20;;
9280;SDS011;4679;47.966;7.958;2024-01-30T12:10:39;3.83;;;1.40;;
9280;SDS011;4679;47.966;7.958;2024-01-30T12:12:41;1.33;;;1.20;;
9280;SDS011;4679;47.966;7.958;2024-01-30T12:14:44;1.50;;;1.20;;
9280;SDS011;4679;47.966;7.958;2024-01-30T12:16:48;1.60;;;1.30;;
9280;SDS011;4679;47.966;7.958;2024-01-30T12:18:58;1.83;;;1.40;;
9280;SDS011;4679;47.966;7.958;2024-01-30T12:21:00;1.20;;;1.10;;
9280;SDS011;4679;47.966;7.958;2024-01-30T12:23:02;1.30;;;1.10;;
9280;SDS011;4679;47.966;7.958;2024-01-30T12:25:07;2.23;;;1.30;;
9280;SDS011;4679;47.966;7.958;2024-01-30T12:27:09;1.60;;;1.13;;
9280;SDS011;4679;47.966;7.958;2024-01-30T12:29:10;1.13;;;1.03;;
9280;SDS011;4679;47.966;7.958;2024-01-30T12:31:11;1.63;;;1.00;;
9280;SDS011;4679;47.966;7.958;2024-01-30T12:33:15;1.20;;;1.07;;
9280;SDS011;4679;47.966;7.958;2024-01-30T12:35:18;1.40;;;1.00;;
9280;SDS011;4679;47.966;7.958;2024-01-30T12:37:19;1.33;;;1.23;;
9280;SDS011;4679;47.966;7.958;2024-01-30T12:39:22;2.00;;;0.90;;
9280;SDS011;4679;47.966;7.958;2024-01-30T12:41:25;2.63;;;1.00;;
9280;SDS011;4679;47.966;7.958;2024-01-30T12:43:29;1.17;;;0.90;;
9280;SDS011;4679;47.966;7.958;2024-01-30T12:45:30;2.10;;;1.30;;
9280;SDS011;4679;47.966;7.958;2024-01-30T12:47:32;1.37;;;0.87;;
9280;SDS011;4679;47.966;7.958;2024-01-30T12:49:33;2.77;;;0.97;;
9280;SDS011;4679;47.966;7.958;2024-01-30T12:51:35;1.73;;;1.00;;
9280;SDS011;4679;47.966;7.958;2024-01-30T12:53:36;1.20;;;0.97;;
9280;SDS011;4679;47.966;7.958;2024-01-30T12:55:38;1.50;;;1.00;;
9280;SDS011;4679;47.966;7.958;2024-01-30T12:57:41;1.17;;;1.07;;
9280;SDS011;4679;47.966;7.958;2024-01-30T12:59:43;1.10;;;1.00;;
9280;SDS011;4679;47.966;7.958;2024-01-30T13:01:45;1.03;;;0.90;;
9280;SDS011;4679;47.966;7.958;2024-01-30T13:03:47;0.80;;;0.80;;
9280;SDS011;4679;47.966;7.958;2024-01-30T13:05:48;3.13;;;1.20;;
9280;SDS011;4679;47.966;7.958;2024-01-30T13:07:50;2.20;;;1.10;;
9280;SDS011;4679;47.966;7.958;2024-01-30T13:09:52;4.87;;;1.20;;
9280;SDS011;4679;47.966;7.958;2024-01-30T13:11:53;1.83;;;1.13;;
9280;SDS011;4679;47.966;7.958;2024-01-30T13:13:56;2.00;;;1.00;;
9280;SDS011;4679;47.966;7.958;2024-01-30T13:15:58;1.20;;;1.10;;
9280;SDS011;4679;47.966;7.958;2024-01-30T13:17:59;1.83;;;0.93;;
9280;SDS011;4679;47.966;7.958;2024-01-30T13:20:00;1.07;;;0.97;;
9280;SDS011;4679;47.966;7.958;2024-01-30T13:22:01;1.87;;;0.97;;
9280;SDS011;4679;47.966;7.958;2024-01-30T13:24:04;1.83;;;1.20;;
9280;SDS011;4679;47.966;7.958;2024-01-30T13:26:06;2.80;;;1.13;;
9280;SDS011;4679;47.966;7.958;2024-01-30T13:30:09;1.80;;;1.40;;
9280;SDS011;4679;47.966;7.958;2024-01-30T13:32:11;2.07;;;1.50;;
9280;SDS011;4679;47.966;7.958;2024-01-30T13:34:13;1.93;;;1.10;;
9280;SDS011;4679;47.966;7.958;2024-01-30T13:36:15;1.57;;;1.10;;
9280;SDS011;4679;47.966;7.958;2024-01-30T13:38:16;1.40;;;1.10;;
9280;SDS011;4679;47.966;7.958;2024-01-30T13:40:18;1.10;;;0.97;;
9280;SDS011;4679;47.966;7.958;2024-01-30T13:42:19;4.10;;;1.20;;
9280;SDS011;4679;47.966;7.958;2024-01-30T13:44:21;1.87;;;1.10;;
9280;SDS011;4679;47.966;7.958;2024-01-30T13:46:24;0.90;;;0.80;;
9280;SDS011;4679;47.966;7.958;2024-01-30T13:48:26;2.90;;;1.10;;
9280;SDS011;4679;47.966;7.958;2024-01-30T13:50:27;0.90;;;0.90;;
9280;SDS011;4679;47.966;7.958;2024-01-30T13:52:28;3.70;;;1.10;;
9280;SDS011;4679;47.966;7.958;2024-01-30T13:54:29;4.00;;;1.10;;
9280;SDS011;4679;47.966;7.958;2024-01-30T13:56:31;0.77;;;0.70;;
9280;SDS011;4679;47.966;7.958;2024-01-30T13:58:33;2.00;;;0.97;;
9280;SDS011;4679;47.966;7.958;2024-01-30T14:00:36;1.30;;;1.17;;
9280;SDS011;4679;47.966;7.958;2024-01-30T14:02:39;1.43;;;1.17;;
9280;SDS011;4679;47.966;7.958;2024-01-30T14:04:39;3.60;;;1.20;;
9280;SDS011;4679;47.966;7.958;2024-01-30T14:06:41;1.00;;;1.00;;
9280;SDS011;4679;47.966;7.958;2024-01-30T14:08:42;1.40;;;1.30;;
9280;SDS011;4679;47.966;7.958;2024-01-30T14:10:44;1.70;;;1.20;;
9280;SDS011;4679;47.966;7.958;2024-01-30T14:12:46;1.83;;;1.10;;
9280;SDS011;4679;47.966;7.958;2024-01-30T14:14:48;1.57;;;0.90;;
9280;SDS011;4679;47.966;7.958;2024-01-30T14:16:49;1.23;;;1.00;;
9280;SDS011;4679;47.966;7.958;2024-01-30T14:18:52;2.10;;;1.00;;
9280;SDS011;4679;47.966;7.958;2024-01-30T14:20:54;2.33;;;1.30;;
9280;SDS011;4679;47.966;7.958;2024-01-30T14:22:56;4.03;;;1.40;;
9280;SDS011;4679;47.966;7.958;2024-01-30T14:24:57;2.00;;;1.50;;
9280;SDS011;4679;47.966;7.958;2024-01-30T14:26:59;1.30;;;1.20;;
9280;SDS011;4679;47.966;7.958;2024-01-30T14:29:01;1.60;;;1.50;;
9280;SDS011;4679;47.966;7.958;2024-01-30T14:31:02;3.30;;;0.93;;
9280;SDS011;4679;47.966;7.958;2024-01-30T14:33:05;2.30;;;0.90;;
9280;SDS011;4679;47.966;7.958;2024-01-30T14:35:09;1.10;;;1.00;;
9280;SDS011;4679;47.966;7.958;2024-01-30T14:37:10;1.93;;;1.17;;
9280;SDS011;4679;47.966;7.958;2024-01-30T14:39:12;3.27;;;1.10;;
9280;SDS011;4679;47.966;7.958;2024-01-30T14:41:13;2.77;;;1.97;;
9280;SDS011;4679;47.966;7.958;2024-01-30T14:43:15;1.50;;;1.40;;
9280;SDS011;4679;47.966;7.958;2024-01-30T14:45:17;1.67;;;1.10;;
9280;SDS011;4679;47.966;7.958;2024-01-30T14:47:19;1.63;;;1.13;;
9280;SDS011;4679;47.966;7.958;2024-01-30T14:49:19;5.33;;;1.03;;
9280;SDS011;4679;47.966;7.958;2024-01-30T14:51:22;1.30;;;1.00;;
9280;SDS011;4679;47.966;7.958;2024-01-30T14:53:24;1.57;;;1.00;;
9280;SDS011;4679;47.966;7.958;2024-01-30T14:55:25;1.47;;;1.10;;
9280;SDS011;4679;47.966;7.958;2024-01-30T14:57:27;1.87;;;1.10;;
9280;SDS011;4679;47.966;7.958;2024-01-30T14:59:30;2.00;;;1.17;;
9280;SDS011;4679;47.966;7.958;2024-01-30T15:01:31;1.43;;;1.20;;
9280;SDS011;4679;47.966;7.958;2024-01-30T15:03:33;1.73;;;1.10;;
9280;SDS011;4679;47.966;7.958;2024-01-30T15:05:35;1.90;;;1.27;;
9280;SDS011;4679;47.966;7.958;2024-01-30T15:07:38;2.30;;;1.50;;
9280;SDS011;4679;47.966;7.958;2024-01-30T15:09:40;1.20;;;1.10;;
9280;SDS011;4679;47.966;7.958;2024-01-30T15:11:43;2.20;;;1.13;;
9280;SDS011;4679;47.966;7.958;2024-01-30T15:13:45;1.20;;;1.10;;
9280;SDS011;4679;47.966;7.958;2024-01-30T15:15:47;2.13;;;1.30;;
9280;SDS011;4679;47.966;7.958;2024-01-30T15:17:47;3.47;;;1.20;;
9280;SDS011;4679;47.966;7.958;2024-01-30T15:19:49;2.43;;;1.57;;
9280;SDS011;4679;47.966;7.958;2024-01-30T15:21:51;1.97;;;1.17;;
9280;SDS011;4679;47.966;7.958;2024-01-30T15:23:53;2.73;;;1.30;;
9280;SDS011;4679;47.966;7.958;2024-01-30T15:25:55;2.27;;;1.40;;
9280;SDS011;4679;47.966;7.958;2024-01-30T15:27:57;2.60;;;1.60;;
9280;SDS011;4679;47.966;7.958;2024-01-30T15:29:58;2.43;;;1.67;;
9280;SDS011;4679;47.966;7.958;2024-01-30T15:32:00;1.50;;;1.40;;
9280;SDS011;4679;47.966;7.958;2024-01-30T15:34:01;5.50;;;5.00;;
9280;SDS011;4679;47.966;7.958;2024-01-30T15:36:04;4.60;;;3.77;;
9280;SDS011;4679;47.966;7.958;2024-01-30T15:38:06;3.73;;;3.43;;
9280;SDS011;4679;47.966;7.958;2024-01-30T15:40:10;2.63;;;1.80;;
9280;SDS011;4679;47.966;7.958;2024-01-30T15:42:12;3.73;;;2.40;;
9280;SDS011;4679;47.966;7.958;2024-01-30T15:44:13;3.53;;;2.10;;
9280;SDS011;4679;47.966;7.958;2024-01-30T15:46:16;2.27;;;2.07;;
9280;SDS011;4679;47.966;7.958;2024-01-30T15:48:18;1.80;;;1.60;;
9280;SDS011;4679;47.966;7.958;2024-01-30T15:50:20;2.90;;;1.30;;
9280;SDS011;4679;47.966;7.958;2024-01-30T15:52:21;3.93;;;1.73;;
9280;SDS011;4679;47.966;7.958;2024-01-30T15:54:23;1.63;;;1.53;;
9280;SDS011;4679;47.966;7.958;2024-01-30T15:56:25;2.07;;;1.27;;
9280;SDS011;4679;47.966;7.958;2024-01-30T15:58:27;2.53;;;1.70;;
9280;SDS011;4679;47.966;7.958;2024-01-30T16:00:29;1.60;;;1.50;;
9280;SDS011;4679;47.966;7.958;2024-01-30T16:02:30;2.67;;;1.80;;
9280;SDS011;4679;47.966;7.958;2024-01-30T16:04:32;2.90;;;1.73;;
9280;SDS011;4679;47.966;7.958;2024-01-30T16:06:34;5.13;;;2.00;;
9280;SDS011;4679;47.966;7.958;2024-01-30T16:08:35;3.80;;;1.63;;
9280;SDS011;4679;47.966;7.958;2024-01-30T16:10:37;3.40;;;1.97;;
9280;SDS011;4679;47.966;7.958;2024-01-30T16:12:40;8.80;;;4.70;;
9280;SDS011;4679;47.966;7.958;2024-01-30T16:14:45;9.87;;;6.30;;
9280;SDS011;4679;47.966;7.958;2024-01-30T16:16:46;4.83;;;3.63;;
9280;SDS011;4679;47.966;7.958;2024-01-30T16:18:48;3.87;;;3.00;;
9280;SDS011;4679;47.966;7.958;2024-01-30T16:20:49;4.70;;;2.37;;
9280;SDS011;4679;47.966;7.958;2024-01-30T16:22:51;3.47;;;2.47;;
9280;SDS011;4679;47.966;7.958;2024-01-30T16:24:53;6.43;;;2.63;;
9280;SDS011;4679;47.966;7.958;2024-01-30T16:26:55;3.20;;;2.77;;
9280;SDS011;4679;47.966;7.958;2024-01-30T16:28:58;3.47;;;2.83;;
9280;SDS011;4679;47.966;7.958;2024-01-30T16:30:59;2.43;;;2.13;;
9280;SDS011;4679;47.966;7.958;2024-01-30T16:33:02;3.53;;;2.57;;
9280;SDS011;4679;47.966;7.958;2024-01-30T16:35:04;3.60;;;2.93;;
9280;SDS011;4679;47.966;7.958;2024-01-30T16:37:05;4.23;;;2.80;;
9280;SDS011;4679;47.966;7.958;2024-01-30T16:39:07;2.97;;;2.00;;
9280;SDS011;4679;47.966;7.958;2024-01-30T16:41:08;5.07;;;2.40;;
9280;SDS011;4679;47.966;7.958;2024-01-30T16:43:10;8.87;;;2.80;;
9280;SDS011;4679;47.966;7.958;2024-01-30T16:45:14;10.03;;;4.93;;
9280;SDS011;4679;47.966;7.958;2024-01-30T16:47:16;7.47;;;4.70;;
9280;SDS011;4679;47.966;7.958;2024-01-30T16:49:17;6.97;;;3.93;;
9280;SDS011;4679;47.966;7.958;2024-01-30T16:51:19;10.03;;;5.63;;
9280;SDS011;4679;47.966;7.958;2024-01-30T16:53:20;9.93;;;7.10;;
9280;SDS011;4679;47.966;7.958;2024-01-30T16:55:22;5.57;;;4.13;;
9280;SDS011;4679;47.966;7.958;2024-01-30T16:57:26;6.07;;;4.17;;
9280;SDS011;4679;47.966;7.958;2024-01-30T16:59:27;4.97;;;4.57;;
9280;SDS011;4679;47.966;7.958;2024-01-30T17:01:30;4.03;;;3.43;;
9280;SDS011;4679;47.966;7.958;2024-01-30T17:03:32;5.20;;;3.67;;
9280;SDS011;4679;47.966;7.958;2024-01-30T17:05:32;4.30;;;3.70;;
9280;SDS011;4679;47.966;7.958;2024-01-30T17:07:34;3.20;;;2.90;;
9280;SDS011;4679;47.966;7.958;2024-01-30T17:09:36;4.77;;;3.70;;
9280;SDS011;4679;47.966;7.958;2024-01-30T17:11:38;8.50;;;5.43;;
9280;SDS011;4679;47.966;7.958;2024-01-30T17:13:38;5.97;;;4.13;;
9280;SDS011;4679;47.966;7.958;2024-01-30T17:15:40;5.20;;;4.63;;
9280;SDS011;4679;47.966;7.958;2024-01-30T17:17:43;3.70;;;3.40;;
9280;SDS011;4679;47.966;7.958;2024-01-30T17:19:44;5.23;;;3.40;;
9280;SDS011;4679;47.966;7.958;2024-01-30T17:21:46;5.93;;;5.00;;
9280;SDS011;4679;47.966;7.958;2024-01-30T17:23:48;6.00;;;5.50;;
9280;SDS011;4679;47.966;7.958;2024-01-30T17:25:49;5.37;;;4.77;;
9280;SDS011;4679;47.966;7.958;2024-01-30T17:27:51;7.67;;;5.60;;
9280;SDS011;4679;47.966;7.958;2024-01-30T17:29:53;5.97;;;4.47;;
9280;SDS011;4679;47.966;7.958;2024-01-30T17:31:54;4.40;;;4.03;;
9280;SDS011;4679;47.966;7.958;2024-01-30T17:33:57;6.53;;;4.90;;
9280;SDS011;4679;47.966;7.958;2024-01-30T17:35:59;4.80;;;3.73;;
9280;SDS011;4679;47.966;7.958;2024-01-30T17:38:01;2.93;;;2.60;;
9280;SDS011;4679;47.966;7.958;2024-01-30T17:40:03;5.80;;;4.03;;
9280;SDS011;4679;47.966;7.958;2024-01-30T17:42:05;7.50;;;5.67;;
9280;SDS011;4679;47.966;7.958;2024-01-30T17:44:07;5.77;;;4.43;;
9280;SDS011;4679;47.966;7.958;2024-01-30T17:46:08;5.13;;;3.73;;
9280;SDS011;4679;47.966;7.958;2024-01-30T17:48:09;2.87;;;2.60;;
9280;SDS011;4679;47.966;7.958;2024-01-30T17:50:12;4.63;;;3.77;;
9280;SDS011;4679;47.966;7.958;2024-01-30T17:52:13;7.53;;;5.87;;
9280;SDS011;4679;47.966;7.958;2024-01-30T17:54:16;5.57;;;4.37;;
9280;SDS011;4679;47.966;7.958;2024-01-30T17:56:17;5.03;;;3.57;;
9280;SDS011;4679;47.966;7.958;2024-01-30T17:58:19;3.47;;;3.17;;
9280;SDS011;4679;47.966;7.958;2024-01-30T18:00:21;4.17;;;3.77;;
9280;SDS011;4679;47.966;7.958;2024-01-30T18:02:22;6.97;;;5.67;;
9280;SDS011;4679;47.966;7.958;2024-01-30T18:04:24;4.70;;;4.20;;
9280;SDS011;4679;47.966;7.958;2024-01-30T18:06:26;6.23;;;5.53;;
9280;SDS011;4679;47.966;7.958;2024-01-30T18:08:28;5.13;;;3.80;;
9280;SDS011;4679;47.966;7.958;2024-01-30T18:10:30;6.20;;;3.27;;
9280;SDS011;4679;47.966;7.958;2024-01-30T18:12:31;4.97;;;4.40;;
9280;SDS011;4679;47.966;7.958;2024-01-30T18:14:33;4.20;;;3.80;;
9280;SDS011;4679;47.966;7.958;2024-01-30T18:16:35;4.87;;;3.40;;
9280;SDS011;4679;47.966;7.958;2024-01-30T18:18:36;5.77;;;3.50;;
9280;SDS011;4679;47.966;7.958;2024-01-30T18:20:38;4.00;;;2.43;;
9280;SDS011;4679;47.966;7.958;2024-01-30T18:22:41;2.53;;;2.33;;
9280;SDS011;4679;47.966;7.958;2024-01-30T18:24:46;5.13;;;4.37;;
9280;SDS011;4679;47.966;7.958;2024-01-30T18:26:46;20.33;;;10.43;;
9280;SDS011;4679;47.966;7.958;2024-01-30T18:28:48;15.50;;;10.00;;
9280;SDS011;4679;47.966;7.958;2024-01-30T18:30:50;14.20;;;7.70;;
9280;SDS011;4679;47.966;7.958;2024-01-30T18:32:51;14.13;;;7.90;;
9280;SDS011;4679;47.966;7.958;2024-01-30T18:34:53;14.13;;;8.73;;
9280;SDS011;4679;47.966;7.958;2024-01-30T18:36:54;9.93;;;6.67;;
9280;SDS011;4679;47.966;7.958;2024-01-30T18:38:59;13.63;;;8.60;;
9280;SDS011;4679;47.966;7.958;2024-01-30T18:41:01;15.30;;;8.80;;
9280;SDS011;4679;47.966;7.958;2024-01-30T18:43:03;11.87;;;8.50;;
9280;SDS011;4679;47.966;7.958;2024-01-30T18:45:07;13.40;;;7.57;;
9280;SDS011;4679;47.966;7.958;2024-01-30T18:47:10;10.47;;;7.43;;
9280;SDS011;4679;47.966;7.958;2024-01-30T18:49:11;11.87;;;8.13;;
9280;SDS011;4679;47.966;7.958;2024-01-30T18:51:13;9.57;;;7.37;;
9280;SDS011;4679;47.966;7.958;2024-01-30T18:53:16;9.53;;;7.17;;
9280;SDS011;4679;47.966;7.958;2024-01-30T18:55:19;7.63;;;6.93;;
9280;SDS011;4679;47.966;7.958;2024-01-30T18:57:20;7.17;;;6.47;;
9280;SDS011;4679;47.966;7.958;2024-01-30T18:59:22;7.17;;;4.90;;
9280;SDS011;4679;47.966;7.958;2024-01-30T19:01:24;8.33;;;5.03;;
9280;SDS011;4679;47.966;7.958;2024-01-30T19:03:25;6.47;;;5.53;;
9280;SDS011;4679;47.966;7.958;2024-01-30T19:05:29;6.03;;;5.43;;
9280;SDS011;4679;47.966;7.958;2024-01-30T19:07:31;6.53;;;5.30;;
9280;SDS011;4679;47.966;7.958;2024-01-30T19:09:33;7.73;;;4.93;;
9280;SDS011;4679;47.966;7.958;2024-01-30T19:11:36;8.10;;;5.80;;
9280;SDS011;4679;47.966;7.958;2024-01-30T19:13:37;4.83;;;4.33;;
9280;SDS011;4679;47.966;7.958;2024-01-30T19:15:39;4.83;;;4.40;;
9280;SDS011;4679;47.966;7.958;2024-01-30T19:17:42;6.63;;;5.13;;
9280;SDS011;4679;47.966;7.958;2024-01-30T19:19:44;7.77;;;5.53;;
9280;SDS011;4679;47.966;7.958;2024-01-30T19:21:47;6.17;;;5.17;;
9280;SDS011;4679;47.966;7.958;2024-01-30T19:23:48;6.73;;;5.20;;
9280;SDS011;4679;47.966;7.958;2024-01-30T19:25:50;6.10;;;4.83;;
9280;SDS011;4679;47.966;7.958;2024-01-30T19:27:53;6.17;;;5.27;;
9280;SDS011;4679;47.966;7.958;2024-01-30T19:29:58;6.30;;;5.53;;
9280;SDS011;4679;47.966;7.958;2024-01-30T19:31:59;6.47;;;4.27;;
9280;SDS011;4679;47.966;7.958;2024-01-30T19:34:01;6.50;;;5.90;;
9280;SDS011;4679;47.966;7.958;2024-01-30T19:36:04;5.27;;;4.77;;
9280;SDS011;4679;47.966;7.958;2024-01-30T19:38:06;16.50;;;11.23;;
9280;SDS011;4679;47.966;7.958;2024-01-30T19:40:09;11.77;;;8.00;;
9280;SDS011;4679;47.966;7.958;2024-01-30T19:42:11;13.23;;;8.70;;
9280;SDS011;4679;47.966;7.958;2024-01-30T19:44:13;10.60;;;8.17;;
9280;SDS011;4679;47.966;7.958;2024-01-30T19:46:15;11.93;;;7.87;;
9280;SDS011;4679;47.966;7.958;2024-01-30T19:48:17;12.07;;;6.93;;
9280;SDS011;4679;47.966;7.958;2024-01-30T19:50:18;8.17;;;6.17;;
9280;SDS011;4679;47.966;7.958;2024-01-30T19:52:20;5.33;;;4.80;;
9280;SDS011;4679;47.966;7.958;2024-01-30T19:54:21;10.17;;;6.17;;